sensor_id;sensor_type;location;lat;lon;timestamp;P1;durP1;ratioP1;P2;durP2;ratioP2
19842;SDS011;10082;51.038;6.992;2023-03-23T00:02:23;3.95;;;2.65;;
19842;SDS011;10082;51.038;6.992;2023-03-23T00:04:51;6.07;;;3.25;;
19842;SDS011;10082;51.038;6.992;2023-03-23T00:07:20;4.32;;;3.40;;
19842;SDS011;10082;51.038;6.992;2023-03-23T00:09:53;3.13;;;2.80;;
19842;SDS011;10082;51.038;6.992;2023-03-23T00:12:23;4.28;;;2.80;;
19842;SDS011;10082;51.038;6.992;2023-03-23T00:14:58;4.78;;;2.63;;
19842;SDS011;10082;51.038;6.992;2023-03-23T00:17:25;5.25;;;3.60;;
19842;SDS011;10082;51.038;6.992;2023-03-23T00:19:53;3.38;;;2.88;;
19842;SDS011;10082;51.038;6.992;2023-03-23T00:22:21;2.90;;;2.35;;
19842;SDS011;10082;51.038;6.992;2023-03-23T00:24:50;4.72;;;3.08;;
19842;SDS011;10082;51.038;6.992;2023-03-23T00:27:19;3.78;;;2.88;;
19842;SDS011;10082;51.038;6.992;2023-03-23T00:29:49;6.13;;;3.88;;
19842;SDS011;10082;51.038;6.992;2023-03-23T00:32:19;4.63;;;3.20;;
19842;SDS011;10082;51.038;6.992;2023-03-23T00:34:54;5.35;;;3.40;;
19842;SDS011;10082;51.038;6.992;2023-03-23T00:37:24;4.93;;;3.13;;
19842;SDS011;10082;51.038;6.992;2023-03-23T00:39:52;4.20;;;3.38;;
19842;SDS011;10082;51.038;6.992;2023-03-23T00:42:22;6.03;;;3.75;;
19842;SDS011;10082;51.038;6.992;2023-03-23T00:44:52;5.18;;;3.40;;
19842;SDS011;10082;51.038;6.992;2023-03-23T00:47:25;4.72;;;3.75;;
19842;SDS011;10082;51.038;6.992;2023-03-23T00:49:53;5.00;;;3.22;;
19842;SDS011;10082;51.038;6.992;2023-03-23T00:52:22;6.38;;;3.75;;
19842;SDS011;10082;51.038;6.992;2023-03-23T00:54:49;3.58;;;2.80;;
19842;SDS011;10082;51.038;6.992;2023-03-23T00:57:17;4.85;;;3.35;;
19842;SDS011;10082;51.038;6.992;2023-03-23T00:59:45;2.20;;;2.00;;
19842;SDS011;10082;51.038;6.992;2023-03-23T01:02:15;2.92;;;2.00;;
19842;SDS011;10082;51.038;6.992;2023-03-23T01:04:43;2.58;;;1.90;;
19842;SDS011;10082;51.038;6.992;2023-03-23T01:07:12;2.33;;;1.90;;
19842;SDS011;10082;51.038;6.992;2023-03-23T01:09:43;3.80;;;2.40;;
19842;SDS011;10082;51.038;6.992;2023-03-23T01:12:11;3.33;;;2.00;;
19842;SDS011;10082;51.038;6.992;2023-03-23T01:14:40;2.05;;;1.85;;
19842;SDS011;10082;51.038;6.992;2023-03-23T01:17:08;2.75;;;2.45;;
19842;SDS011;10082;51.038;6.992;2023-03-23T01:19:38;2.72;;;2.28;;
19842;SDS011;10082;51.038;6.992;2023-03-23T01:22:07;2.47;;;2.15;;
19842;SDS011;10082;51.038;6.992;2023-03-23T01:24:35;4.07;;;3.30;;
19842;SDS011;10082;51.038;6.992;2023-03-23T01:27:02;3.78;;;2.80;;
19842;SDS011;10082;51.038;6.992;2023-03-23T01:29:32;2.95;;;2.10;;
19842;SDS011;10082;51.038;6.992;2023-03-23T01:32:00;3.10;;;2.08;;
19842;SDS011;10082;51.038;6.992;2023-03-23T01:34:28;3.42;;;2.72;;
19842;SDS011;10082;51.038;6.992;2023-03-23T01:36:58;2.40;;;2.20;;
19842;SDS011;10082;51.038;6.992;2023-03-23T01:39:26;3.80;;;2.30;;
19842;SDS011;10082;51.038;6.992;2023-03-23T01:41:53;3.50;;;2.60;;
19842;SDS011;10082;51.038;6.992;2023-03-23T01:47:31;6.38;;;4.00;;
19842;SDS011;10082;51.038;6.992;2023-03-23T01:49:59;4.53;;;3.38;;
19842;SDS011;10082;51.038;6.992;2023-03-23T01:52:29;4.65;;;3.22;;
19842;SDS011;10082;51.038;6.992;2023-03-23T01:55:01;4.00;;;3.00;;
19842;SDS011;10082;51.038;6.992;2023-03-23T01:57:30;3.13;;;2.83;;
19842;SDS011;10082;51.038;6.992;2023-03-23T02:00:01;4.65;;;3.50;;
19842;SDS011;10082;51.038;6.992;2023-03-23T02:02:40;5.00;;;4.10;;
19842;SDS011;10082;51.038;6.992;2023-03-23T02:05:11;5.80;;;4.65;;
19842;SDS011;10082;51.038;6.992;2023-03-23T02:07:48;7.97;;;5.18;;
19842;SDS011;10082;51.038;6.992;2023-03-23T02:10:16;5.68;;;4.22;;
19842;SDS011;10082;51.038;6.992;2023-03-23T02:12:44;6.18;;;5.00;;
19842;SDS011;10082;51.038;6.992;2023-03-23T02:15:12;5.95;;;4.47;;
19842;SDS011;10082;51.038;6.992;2023-03-23T02:17:44;5.97;;;4.20;;
19842;SDS011;10082;51.038;6.992;2023-03-23T02:20:22;5.57;;;3.95;;
19842;SDS011;10082;51.038;6.992;2023-03-23T02:23:14;6.05;;;3.75;;
19842;SDS011;10082;51.038;6.992;2023-03-23T02:25:58;3.45;;;3.00;;
19842;SDS011;10082;51.038;6.992;2023-03-23T02:28:48;3.83;;;3.10;;
19842;SDS011;10082;51.038;6.992;2023-03-23T02:31:39;2.50;;;2.30;;
19842;SDS011;10082;51.038;6.992;2023-03-23T02:34:20;2.60;;;2.40;;
19842;SDS011;10082;51.038;6.992;2023-03-23T02:36:52;2.70;;;2.05;;
19842;SDS011;10082;51.038;6.992;2023-03-23T02:39:26;2.30;;;2.10;;
19842;SDS011;10082;51.038;6.992;2023-03-23T02:41:59;2.45;;;2.03;;
19842;SDS011;10082;51.038;6.992;2023-03-23T02:44:32;1.95;;;1.85;;
19842;SDS011;10082;51.038;6.992;2023-03-23T02:47:03;1.90;;;1.80;;
19842;SDS011;10082;51.038;6.992;2023-03-23T02:49:36;2.55;;;1.88;;
19842;SDS011;10082;51.038;6.992;2023-03-23T02:52:08;2.00;;;1.80;;
19842;SDS011;10082;51.038;6.992;2023-03-23T02:54:42;2.92;;;2.05;;
19842;SDS011;10082;51.038;6.992;2023-03-23T02:57:11;2.22;;;1.90;;
19842;SDS011;10082;51.038;6.992;2023-03-23T02:59:41;2.75;;;2.30;;
19842;SDS011;10082;51.038;6.992;2023-03-23T03:02:09;3.47;;;1.98;;
19842;SDS011;10082;51.038;6.992;2023-03-23T03:04:44;1.88;;;1.75;;
19842;SDS011;10082;51.038;6.992;2023-03-23T03:07:33;3.17;;;1.95;;
19842;SDS011;10082;51.038;6.992;2023-03-23T03:10:15;1.77;;;1.60;;
19842;SDS011;10082;51.038;6.992;2023-03-23T03:12:50;1.98;;;1.80;;
19842;SDS011;10082;51.038;6.992;2023-03-23T03:15:25;1.90;;;1.80;;
19842;SDS011;10082;51.038;6.992;2023-03-23T03:17:59;1.52;;;1.40;;
19842;SDS011;10082;51.038;6.992;2023-03-23T03:20:35;1.70;;;1.50;;
19842;SDS011;10082;51.038;6.992;2023-03-23T03:23:07;1.95;;;1.38;;
19842;SDS011;10082;51.038;6.992;2023-03-23T03:25:39;1.83;;;1.55;;
19842;SDS011;10082;51.038;6.992;2023-03-23T03:28:14;1.77;;;1.67;;
19842;SDS011;10082;51.038;6.992;2023-03-23T03:30:49;2.20;;;1.60;;
19842;SDS011;10082;51.038;6.992;2023-03-23T03:33:21;1.60;;;1.50;;
19842;SDS011;10082;51.038;6.992;2023-03-23T03:35:53;2.25;;;1.77;;
19842;SDS011;10082;51.038;6.992;2023-03-23T03:38:22;1.60;;;1.50;;
19842;SDS011;10082;51.038;6.992;2023-03-23T03:40:51;1.63;;;1.40;;
19842;SDS011;10082;51.038;6.992;2023-03-23T03:43:19;1.75;;;1.42;;
19842;SDS011;10082;51.038;6.992;2023-03-23T03:45:47;1.52;;;1.42;;
19842;SDS011;10082;51.038;6.992;2023-03-23T03:48:15;1.40;;;1.30;;
19842;SDS011;10082;51.038;6.992;2023-03-23T03:50:42;1.65;;;1.50;;
19842;SDS011;10082;51.038;6.992;2023-03-23T03:53:12;1.45;;;1.35;;
19842;SDS011;10082;51.038;6.992;2023-03-23T03:55:40;2.30;;;1.50;;
19842;SDS011;10082;51.038;6.992;2023-03-23T03:58:15;1.40;;;1.30;;
19842;SDS011;10082;51.038;6.992;2023-03-23T04:01:18;1.50;;;1.38;;
19842;SDS011;10082;51.038;6.992;2023-03-23T04:03:48;1.83;;;1.48;;
19842;SDS011;10082;51.038;6.992;2023-03-23T04:06:26;1.55;;;1.30;;
19842;SDS011;10082;51.038;6.992;2023-03-23T04:08:57;1.85;;;1.27;;
19842;SDS011;10082;51.038;6.992;2023-03-23T04:11:28;1.52;;;1.42;;
19842;SDS011;10082;51.038;6.992;2023-03-23T04:14:13;1.38;;;1.15;;
19842;SDS011;10082;51.038;6.992;2023-03-23T04:16:43;1.50;;;1.40;;
19842;SDS011;10082;51.038;6.992;2023-03-23T04:19:11;1.38;;;1.27;;
19842;SDS011;10082;51.038;6.992;2023-03-23T04:21:38;1.73;;;1.20;;
19842;SDS011;10082;51.038;6.992;2023-03-23T04:24:07;1.10;;;1.10;;
19842;SDS011;10082;51.038;6.992;2023-03-23T04:26:35;3.45;;;1.48;;
19842;SDS011;10082;51.038;6.992;2023-03-23T04:29:18;1.45;;;1.35;;
19842;SDS011;10082;51.038;6.992;2023-03-23T04:32:18;1.33;;;1.20;;
19842;SDS011;10082;51.038;6.992;2023-03-23T04:34:51;1.77;;;1.40;;
19842;SDS011;10082;51.038;6.992;2023-03-23T04:37:26;1.35;;;1.20;;
19842;SDS011;10082;51.038;6.992;2023-03-23T04:39:57;1.88;;;1.30;;
19842;SDS011;10082;51.038;6.992;2023-03-23T04:42:28;1.95;;;1.52;;
19842;SDS011;10082;51.038;6.992;2023-03-23T04:45:26;2.38;;;1.55;;
19842;SDS011;10082;51.038;6.992;2023-03-23T04:47:55;1.80;;;1.40;;
19842;SDS011;10082;51.038;6.992;2023-03-23T04:50:41;2.28;;;1.70;;
19842;SDS011;10082;51.038;6.992;2023-03-23T04:53:20;2.50;;;1.40;;
19842;SDS011;10082;51.038;6.992;2023-03-23T04:55:50;1.73;;;1.63;;
19842;SDS011;10082;51.038;6.992;2023-03-23T04:58:19;2.30;;;1.40;;
19842;SDS011;10082;51.038;6.992;2023-03-23T05:01:07;2.00;;;1.42;;
19842;SDS011;10082;51.038;6.992;2023-03-23T05:03:42;2.15;;;1.52;;
19842;SDS011;10082;51.038;6.992;2023-03-23T05:06:10;1.55;;;1.45;;
19842;SDS011;10082;51.038;6.992;2023-03-23T05:08:38;1.70;;;1.60;;
19842;SDS011;10082;51.038;6.992;2023-03-23T05:11:07;1.83;;;1.73;;
19842;SDS011;10082;51.038;6.992;2023-03-23T05:13:38;1.50;;;1.40;;
19842;SDS011;10082;51.038;6.992;2023-03-23T05:16:07;1.80;;;1.70;;
19842;SDS011;10082;51.038;6.992;2023-03-23T05:18:37;1.55;;;1.45;;
19842;SDS011;10082;51.038;6.992;2023-03-23T05:21:14;1.60;;;1.50;;
19842;SDS011;10082;51.038;6.992;2023-03-23T05:23:47;2.28;;;1.67;;
19842;SDS011;10082;51.038;6.992;2023-03-23T05:26:21;1.58;;;1.48;;
19842;SDS011;10082;51.038;6.992;2023-03-23T05:28:53;1.85;;;1.58;;
19842;SDS011;10082;51.038;6.992;2023-03-23T05:31:33;1.75;;;1.50;;
19842;SDS011;10082;51.038;6.992;2023-03-23T05:34:01;2.03;;;1.83;;
19842;SDS011;10082;51.038;6.992;2023-03-23T05:36:37;2.40;;;1.80;;
19842;SDS011;10082;51.038;6.992;2023-03-23T05:39:11;1.85;;;1.70;;
19842;SDS011;10082;51.038;6.992;2023-03-23T05:42:04;2.40;;;1.70;;
19842;SDS011;10082;51.038;6.992;2023-03-23T05:44:43;2.55;;;1.73;;
19842;SDS011;10082;51.038;6.992;2023-03-23T05:47:11;2.20;;;1.85;;
19842;SDS011;10082;51.038;6.992;2023-03-23T05:49:43;1.70;;;1.60;;
19842;SDS011;10082;51.038;6.992;2023-03-23T05:52:14;2.00;;;1.67;;
19842;SDS011;10082;51.038;6.992;2023-03-23T05:54:42;1.88;;;1.77;;
19842;SDS011;10082;51.038;6.992;2023-03-23T05:57:12;1.95;;;1.80;;
19842;SDS011;10082;51.038;6.992;2023-03-23T05:59:45;2.13;;;1.92;;
19842;SDS011;10082;51.038;6.992;2023-03-23T06:02:19;1.80;;;1.70;;
19842;SDS011;10082;51.038;6.992;2023-03-23T06:04:49;2.30;;;2.10;;
19842;SDS011;10082;51.038;6.992;2023-03-23T06:07:26;1.88;;;1.77;;
19842;SDS011;10082;51.038;6.992;2023-03-23T06:10:00;2.10;;;1.90;;
19842;SDS011;10082;51.038;6.992;2023-03-23T06:12:37;2.20;;;1.90;;
19842;SDS011;10082;51.038;6.992;2023-03-23T06:15:24;2.20;;;2.00;;
19842;SDS011;10082;51.038;6.992;2023-03-23T06:18:09;2.10;;;1.88;;
19842;SDS011;10082;51.038;6.992;2023-03-23T06:21:04;2.10;;;1.90;;
19842;SDS011;10082;51.038;6.992;2023-03-23T06:24:01;2.72;;;1.90;;
19842;SDS011;10082;51.038;6.992;2023-03-23T06:26:30;2.75;;;2.30;;
19842;SDS011;10082;51.038;6.992;2023-03-23T06:29:06;2.30;;;2.10;;
19842;SDS011;10082;51.038;6.992;2023-03-23T06:31:44;2.50;;;2.30;;
19842;SDS011;10082;51.038;6.992;2023-03-23T06:34:14;2.33;;;2.08;;
19842;SDS011;10082;51.038;6.992;2023-03-23T06:37:17;8.95;;;8.23;;
19842;SDS011;10082;51.038;6.992;2023-03-23T06:39:51;9.90;;;8.90;;
19842;SDS011;10082;51.038;6.992;2023-03-23T06:42:27;8.88;;;6.47;;
19842;SDS011;10082;51.038;6.992;2023-03-23T06:45:16;6.50;;;5.85;;
19842;SDS011;10082;51.038;6.992;2023-03-23T06:47:48;7.03;;;4.25;;
19842;SDS011;10082;51.038;6.992;2023-03-23T06:50:15;6.85;;;4.20;;
19842;SDS011;10082;51.038;6.992;2023-03-23T06:52:44;6.03;;;4.28;;
19842;SDS011;10082;51.038;6.992;2023-03-23T06:55:12;9.70;;;4.32;;
19842;SDS011;10082;51.038;6.992;2023-03-23T06:57:40;5.88;;;4.18;;
19842;SDS011;10082;51.038;6.992;2023-03-23T07:00:08;6.70;;;3.88;;
19842;SDS011;10082;51.038;6.992;2023-03-23T07:02:42;5.15;;;3.40;;
19842;SDS011;10082;51.038;6.992;2023-03-23T07:05:11;6.72;;;4.20;;
19842;SDS011;10082;51.038;6.992;2023-03-23T07:07:40;5.35;;;3.53;;
19842;SDS011;10082;51.038;6.992;2023-03-23T07:10:17;6.00;;;3.55;;
19842;SDS011;10082;51.038;6.992;2023-03-23T07:12:44;6.70;;;4.47;;
19842;SDS011;10082;51.038;6.992;2023-03-23T07:15:12;6.55;;;3.30;;
19842;SDS011;10082;51.038;6.992;2023-03-23T07:17:46;3.00;;;2.55;;
19842;SDS011;10082;51.038;6.992;2023-03-23T07:20:24;3.45;;;2.70;;
19842;SDS011;10082;51.038;6.992;2023-03-23T07:22:53;4.00;;;2.85;;
19842;SDS011;10082;51.038;6.992;2023-03-23T07:25:42;5.00;;;2.90;;
19842;SDS011;10082;51.038;6.992;2023-03-23T07:28:13;3.78;;;2.75;;
19842;SDS011;10082;51.038;6.992;2023-03-23T07:30:42;7.25;;;3.30;;
19842;SDS011;10082;51.038;6.992;2023-03-23T07:33:11;7.20;;;3.08;;
19842;SDS011;10082;51.038;6.992;2023-03-23T07:35:42;5.68;;;3.15;;
19842;SDS011;10082;51.038;6.992;2023-03-23T07:38:16;6.20;;;3.60;;
19842;SDS011;10082;51.038;6.992;2023-03-23T07:40:47;6.60;;;2.85;;
19842;SDS011;10082;51.038;6.992;2023-03-23T07:43:17;3.70;;;2.78;;
19842;SDS011;10082;51.038;6.992;2023-03-23T07:46:07;8.63;;;3.42;;
19842;SDS011;10082;51.038;6.992;2023-03-23T07:48:59;5.97;;;3.60;;
19842;SDS011;10082;51.038;6.992;2023-03-23T07:51:34;4.65;;;3.15;;
19842;SDS011;10082;51.038;6.992;2023-03-23T07:54:06;5.93;;;3.17;;
19842;SDS011;10082;51.038;6.992;2023-03-23T07:56:52;5.60;;;3.90;;
19842;SDS011;10082;51.038;6.992;2023-03-23T07:59:22;5.93;;;3.78;;
19842;SDS011;10082;51.038;6.992;2023-03-23T08:01:50;7.65;;;4.45;;
19842;SDS011;10082;51.038;6.992;2023-03-23T08:04:35;6.05;;;3.55;;
19842;SDS011;10082;51.038;6.992;2023-03-23T08:07:18;3.25;;;2.50;;
19842;SDS011;10082;51.038;6.992;2023-03-23T08:09:52;5.40;;;3.70;;
19842;SDS011;10082;51.038;6.992;2023-03-23T08:12:37;3.85;;;2.25;;
19842;SDS011;10082;51.038;6.992;2023-03-23T08:15:28;4.40;;;2.63;;
19842;SDS011;10082;51.038;6.992;2023-03-23T08:18:18;5.93;;;2.40;;
19842;SDS011;10082;51.038;6.992;2023-03-23T08:21:23;7.10;;;3.00;;
19842;SDS011;10082;51.038;6.992;2023-03-23T08:24:09;3.03;;;2.15;;
19842;SDS011;10082;51.038;6.992;2023-03-23T08:27:01;2.92;;;1.98;;
19842;SDS011;10082;51.038;6.992;2023-03-23T08:29:50;3.22;;;2.00;;
19842;SDS011;10082;51.038;6.992;2023-03-23T08:32:38;2.38;;;1.77;;
19842;SDS011;10082;51.038;6.992;2023-03-23T08:35:26;4.10;;;2.00;;
19842;SDS011;10082;51.038;6.992;2023-03-23T08:38:07;4.00;;;1.90;;
19842;SDS011;10082;51.038;6.992;2023-03-23T08:40:34;2.40;;;1.50;;
19842;SDS011;10082;51.038;6.992;2023-03-23T08:43:20;3.13;;;1.73;;
19842;SDS011;10082;51.038;6.992;2023-03-23T08:46:06;3.47;;;2.05;;
19842;SDS011;10082;51.038;6.992;2023-03-23T08:48:54;3.17;;;1.75;;
19842;SDS011;10082;51.038;6.992;2023-03-23T08:51:41;2.38;;;1.70;;
19842;SDS011;10082;51.038;6.992;2023-03-23T08:54:32;2.83;;;1.60;;
19842;SDS011;10082;51.038;6.992;2023-03-23T08:57:16;4.82;;;1.88;;
19842;SDS011;10082;51.038;6.992;2023-03-23T09:00:10;2.58;;;1.70;;
19842;SDS011;10082;51.038;6.992;2023-03-23T09:03:01;3.20;;;1.50;;
19842;SDS011;10082;51.038;6.992;2023-03-23T09:05:40;4.68;;;1.80;;
19842;SDS011;10082;51.038;6.992;2023-03-23T09:08:22;3.13;;;1.63;;
19842;SDS011;10082;51.038;6.992;2023-03-23T09:10:51;3.47;;;1.70;;
19842;SDS011;10082;51.038;6.992;2023-03-23T09:13:18;4.63;;;1.50;;
19842;SDS011;10082;51.038;6.992;2023-03-23T09:15:46;3.20;;;1.70;;
19842;SDS011;10082;51.038;6.992;2023-03-23T09:18:15;3.05;;;1.73;;
19842;SDS011;10082;51.038;6.992;2023-03-23T09:20:42;6.00;;;2.00;;
19842;SDS011;10082;51.038;6.992;2023-03-23T09:23:15;2.75;;;1.70;;
19842;SDS011;10082;51.038;6.992;2023-03-23T09:25:43;3.47;;;1.60;;
19842;SDS011;10082;51.038;6.992;2023-03-23T09:28:13;2.90;;;2.00;;
19842;SDS011;10082;51.038;6.992;2023-03-23T09:30:41;2.53;;;2.00;;
19842;SDS011;10082;51.038;6.992;2023-03-23T09:33:09;4.70;;;1.73;;
19842;SDS011;10082;51.038;6.992;2023-03-23T09:35:36;3.45;;;1.83;;
19842;SDS011;10082;51.038;6.992;2023-03-23T09:38:07;4.57;;;1.92;;
19842;SDS011;10082;51.038;6.992;2023-03-23T09:40:39;4.43;;;1.80;;
19842;SDS011;10082;51.038;6.992;2023-03-23T09:43:19;5.10;;;1.90;;
19842;SDS011;10082;51.038;6.992;2023-03-23T09:45:58;3.00;;;1.48;;
19842;SDS011;10082;51.038;6.992;2023-03-23T09:48:37;3.75;;;1.50;;
19842;SDS011;10082;51.038;6.992;2023-03-23T09:51:13;3.85;;;1.50;;
19842;SDS011;10082;51.038;6.992;2023-03-23T09:53:50;4.28;;;1.45;;
19842;SDS011;10082;51.038;6.992;2023-03-23T09:56:19;3.20;;;1.33;;
19842;SDS011;10082;51.038;6.992;2023-03-23T09:58:51;5.55;;;1.45;;
19842;SDS011;10082;51.038;6.992;2023-03-23T10:01:23;4.30;;;1.50;;
19842;SDS011;10082;51.038;6.992;2023-03-23T10:03:55;3.97;;;1.42;;
19842;SDS011;10082;51.038;6.992;2023-03-23T10:06:28;4.60;;;1.90;;
19842;SDS011;10082;51.038;6.992;2023-03-23T10:08:56;7.93;;;2.05;;
19842;SDS011;10082;51.038;6.992;2023-03-23T10:11:30;3.20;;;1.63;;
19842;SDS011;10082;51.038;6.992;2023-03-23T10:17:03;2.90;;;1.75;;
19842;SDS011;10082;51.038;6.992;2023-03-23T10:19:39;4.82;;;1.88;;
19842;SDS011;10082;51.038;6.992;2023-03-23T10:22:14;4.65;;;1.67;;
19842;SDS011;10082;51.038;6.992;2023-03-23T10:24:48;4.47;;;1.40;;
19842;SDS011;10082;51.038;6.992;2023-03-23T10:27:23;3.67;;;1.50;;
19842;SDS011;10082;51.038;6.992;2023-03-23T10:29:55;3.72;;;1.50;;
19842;SDS011;10082;51.038;6.992;2023-03-23T10:32:39;3.20;;;1.48;;
19842;SDS011;10082;51.038;6.992;2023-03-23T10:35:11;5.28;;;1.80;;
19842;SDS011;10082;51.038;6.992;2023-03-23T10:37:42;2.33;;;1.40;;
19842;SDS011;10082;51.038;6.992;2023-03-23T10:40:15;4.10;;;1.60;;
19842;SDS011;10082;51.038;6.992;2023-03-23T10:42:46;2.72;;;1.40;;
19842;SDS011;10082;51.038;6.992;2023-03-23T10:45:17;2.75;;;1.50;;
19842;SDS011;10082;51.038;6.992;2023-03-23T10:47:48;2.47;;;1.33;;
19842;SDS011;10082;51.038;6.992;2023-03-23T10:50:21;2.53;;;1.35;;
19842;SDS011;10082;51.038;6.992;2023-03-23T10:52:52;2.45;;;1.60;;
19842;SDS011;10082;51.038;6.992;2023-03-23T10:55:34;3.85;;;1.83;;
19842;SDS011;10082;51.038;6.992;2023-03-23T10:58:04;2.65;;;1.85;;
19842;SDS011;10082;51.038;6.992;2023-03-23T11:00:41;2.92;;;1.45;;
19842;SDS011;10082;51.038;6.992;2023-03-23T11:03:21;2.35;;;1.70;;
19842;SDS011;10082;51.038;6.992;2023-03-23T11:05:58;2.72;;;1.40;;
19842;SDS011;10082;51.038;6.992;2023-03-23T11:08:29;2.25;;;1.50;;
19842;SDS011;10082;51.038;6.992;2023-03-23T11:11:10;1.95;;;1.52;;
19842;SDS011;10082;51.038;6.992;2023-03-23T11:13:39;1.80;;;1.50;;
19842;SDS011;10082;51.038;6.992;2023-03-23T11:16:21;2.38;;;1.33;;
19842;SDS011;10082;51.038;6.992;2023-03-23T11:18:53;1.63;;;1.20;;
19842;SDS011;10082;51.038;6.992;2023-03-23T11:21:22;1.70;;;1.20;;
19842;SDS011;10082;51.038;6.992;2023-03-23T11:23:52;1.40;;;1.20;;
19842;SDS011;10082;51.038;6.992;2023-03-23T11:26:24;2.17;;;1.15;;
19842;SDS011;10082;51.038;6.992;2023-03-23T11:28:56;2.00;;;1.30;;
19842;SDS011;10082;51.038;6.992;2023-03-23T11:31:29;2.72;;;1.35;;
19842;SDS011;10082;51.038;6.992;2023-03-23T11:34:02;2.08;;;1.00;;
19842;SDS011;10082;51.038;6.992;2023-03-23T11:36:35;1.67;;;1.10;;
19842;SDS011;10082;51.038;6.992;2023-03-23T11:39:17;1.40;;;0.90;;
19842;SDS011;10082;51.038;6.992;2023-03-23T11:41:47;1.40;;;1.02;;
19842;SDS011;10082;51.038;6.992;2023-03-23T11:44:15;1.52;;;1.13;;
19842;SDS011;10082;51.038;6.992;2023-03-23T11:46:48;2.00;;;1.20;;
19842;SDS011;10082;51.038;6.992;2023-03-23T11:49:25;4.35;;;2.40;;
19842;SDS011;10082;51.038;6.992;2023-03-23T11:52:03;2.58;;;1.80;;
19842;SDS011;10082;51.038;6.992;2023-03-23T11:54:40;7.03;;;5.57;;
19842;SDS011;10082;51.038;6.992;2023-03-23T11:57:15;2.08;;;1.40;;
19842;SDS011;10082;51.038;6.992;2023-03-23T11:59:44;2.13;;;1.50;;
19842;SDS011;10082;51.038;6.992;2023-03-23T12:02:31;3.17;;;1.40;;
19842;SDS011;10082;51.038;6.992;2023-03-23T12:05:23;3.00;;;2.10;;
19842;SDS011;10082;51.038;6.992;2023-03-23T12:11:05;4.00;;;2.13;;
19842;SDS011;10082;51.038;6.992;2023-03-23T12:13:48;4.78;;;2.40;;
19842;SDS011;10082;51.038;6.992;2023-03-23T12:16:36;2.90;;;2.05;;
19842;SDS011;10082;51.038;6.992;2023-03-23T12:19:20;3.88;;;1.90;;
19842;SDS011;10082;51.038;6.992;2023-03-23T12:21:57;2.50;;;2.28;;
19842;SDS011;10082;51.038;6.992;2023-03-23T12:24:38;3.70;;;2.53;;
19842;SDS011;10082;51.038;6.992;2023-03-23T12:27:15;3.83;;;2.40;;
19842;SDS011;10082;51.038;6.992;2023-03-23T12:29:55;3.47;;;2.38;;
19842;SDS011;10082;51.038;6.992;2023-03-23T12:32:31;3.45;;;2.45;;
19842;SDS011;10082;51.038;6.992;2023-03-23T12:35:17;2.67;;;2.42;;
19842;SDS011;10082;51.038;6.992;2023-03-23T12:38:00;3.33;;;2.70;;
19842;SDS011;10082;51.038;6.992;2023-03-23T12:40:41;3.22;;;2.63;;
19842;SDS011;10082;51.038;6.992;2023-03-23T12:43:19;2.90;;;2.60;;
19842;SDS011;10082;51.038;6.992;2023-03-23T12:49:04;3.25;;;2.58;;
19842;SDS011;10082;51.038;6.992;2023-03-23T12:51:39;3.50;;;2.83;;
19842;SDS011;10082;51.038;6.992;2023-03-23T12:54:14;3.47;;;2.85;;
19842;SDS011;10082;51.038;6.992;2023-03-23T12:56:49;3.17;;;2.65;;
19842;SDS011;10082;51.038;6.992;2023-03-23T12:59:23;5.32;;;3.13;;
19842;SDS011;10082;51.038;6.992;2023-03-23T13:01:56;5.80;;;3.05;;
19842;SDS011;10082;51.038;6.992;2023-03-23T13:04:30;3.22;;;2.47;;
19842;SDS011;10082;51.038;6.992;2023-03-23T13:07:05;5.18;;;3.20;;
19842;SDS011;10082;51.038;6.992;2023-03-23T13:09:45;4.22;;;2.92;;
19842;SDS011;10082;51.038;6.992;2023-03-23T13:12:17;4.07;;;2.88;;
19842;SDS011;10082;51.038;6.992;2023-03-23T13:14:48;3.45;;;2.75;;
19842;SDS011;10082;51.038;6.992;2023-03-23T13:17:26;5.05;;;3.10;;
19842;SDS011;10082;51.038;6.992;2023-03-23T13:20:14;4.53;;;2.53;;
19842;SDS011;10082;51.038;6.992;2023-03-23T13:22:52;1.80;;;1.30;;
19842;SDS011;10082;51.038;6.992;2023-03-23T13:25:37;3.13;;;1.52;;
19842;SDS011;10082;51.038;6.992;2023-03-23T13:28:14;2.80;;;1.58;;
19842;SDS011;10082;51.038;6.992;2023-03-23T13:30:52;2.97;;;1.55;;
19842;SDS011;10082;51.038;6.992;2023-03-23T13:33:21;2.35;;;1.40;;
19842;SDS011;10082;51.038;6.992;2023-03-23T13:35:49;4.18;;;1.40;;
19842;SDS011;10082;51.038;6.992;2023-03-23T13:38:20;3.03;;;1.23;;
19842;SDS011;10082;51.038;6.992;2023-03-23T13:40:50;1.70;;;1.30;;
19842;SDS011;10082;51.038;6.992;2023-03-23T13:43:25;2.35;;;1.50;;
19842;SDS011;10082;51.038;6.992;2023-03-23T13:45:54;1.55;;;1.33;;
19842;SDS011;10082;51.038;6.992;2023-03-23T13:48:39;2.10;;;1.20;;
19842;SDS011;10082;51.038;6.992;2023-03-23T13:51:23;3.92;;;1.50;;
19842;SDS011;10082;51.038;6.992;2023-03-23T13:54:12;1.98;;;1.20;;
19842;SDS011;10082;51.038;6.992;2023-03-23T13:56:50;2.75;;;1.27;;
19842;SDS011;10082;51.038;6.992;2023-03-23T13:59:31;2.83;;;2.30;;
19842;SDS011;10082;51.038;6.992;2023-03-23T14:05:07;2.63;;;1.33;;
19842;SDS011;10082;51.038;6.992;2023-03-23T14:07:53;1.73;;;1.25;;
19842;SDS011;10082;51.038;6.992;2023-03-23T14:10:23;1.40;;;0.98;;
19842;SDS011;10082;51.038;6.992;2023-03-23T14:12:52;2.08;;;0.90;;
19842;SDS011;10082;51.038;6.992;2023-03-23T14:15:20;1.48;;;0.95;;
19842;SDS011;10082;51.038;6.992;2023-03-23T14:17:54;1.10;;;0.98;;
19842;SDS011;10082;51.038;6.992;2023-03-23T14:20:24;0.93;;;0.88;;
19842;SDS011;10082;51.038;6.992;2023-03-23T14:22:54;2.92;;;1.38;;
19842;SDS011;10082;51.038;6.992;2023-03-23T14:25:26;2.03;;;0.90;;
19842;SDS011;10082;51.038;6.992;2023-03-23T14:27:56;2.28;;;1.05;;
19842;SDS011;10082;51.038;6.992;2023-03-23T14:30:24;3.65;;;1.15;;
19842;SDS011;10082;51.038;6.992;2023-03-23T14:33:02;3.85;;;1.20;;
19842;SDS011;10082;51.038;6.992;2023-03-23T14:35:31;2.10;;;0.90;;
19842;SDS011;10082;51.038;6.992;2023-03-23T14:37:59;4.70;;;1.73;;
19842;SDS011;10082;51.038;6.992;2023-03-23T14:40:29;3.22;;;1.50;;
19842;SDS011;10082;51.038;6.992;2023-03-23T14:42:57;4.05;;;1.33;;
19842;SDS011;10082;51.038;6.992;2023-03-23T14:45:26;1.98;;;1.27;;
19842;SDS011;10082;51.038;6.992;2023-03-23T14:47:54;3.25;;;1.50;;
19842;SDS011;10082;51.038;6.992;2023-03-23T14:50:26;2.03;;;1.20;;
19842;SDS011;10082;51.038;6.992;2023-03-23T14:52:59;3.53;;;1.33;;
19842;SDS011;10082;51.038;6.992;2023-03-23T14:55:30;2.47;;;1.60;;
19842;SDS011;10082;51.038;6.992;2023-03-23T14:58:05;3.33;;;1.20;;
19842;SDS011;10082;51.038;6.992;2023-03-23T15:00:34;2.10;;;1.50;;
19842;SDS011;10082;51.038;6.992;2023-03-23T15:03:05;4.05;;;2.50;;
19842;SDS011;10082;51.038;6.992;2023-03-23T15:05:35;5.25;;;2.33;;
19842;SDS011;10082;51.038;6.992;2023-03-23T15:08:05;3.33;;;1.90;;
19842;SDS011;10082;51.038;6.992;2023-03-23T15:10:35;3.58;;;1.90;;
19842;SDS011;10082;51.038;6.992;2023-03-23T15:13:03;3.05;;;1.88;;
19842;SDS011;10082;51.038;6.992;2023-03-23T15:15:30;5.70;;;1.70;;
19842;SDS011;10082;51.038;6.992;2023-03-23T15:17:59;2.83;;;1.70;;
19842;SDS011;10082;51.038;6.992;2023-03-23T15:20:29;4.20;;;1.65;;
19842;SDS011;10082;51.038;6.992;2023-03-23T15:23:04;5.53;;;2.50;;
19842;SDS011;10082;51.038;6.992;2023-03-23T15:25:33;3.78;;;1.83;;
19842;SDS011;10082;51.038;6.992;2023-03-23T15:28:14;2.90;;;2.10;;
19842;SDS011;10082;51.038;6.992;2023-03-23T15:30:47;2.28;;;1.90;;
19842;SDS011;10082;51.038;6.992;2023-03-23T15:33:17;4.18;;;2.20;;
19842;SDS011;10082;51.038;6.992;2023-03-23T15:35:51;3.88;;;2.20;;
19842;SDS011;10082;51.038;6.992;2023-03-23T15:38:20;6.05;;;2.10;;
19842;SDS011;10082;51.038;6.992;2023-03-23T15:40:53;3.35;;;2.20;;
19842;SDS011;10082;51.038;6.992;2023-03-23T15:43:22;4.38;;;1.90;;
19842;SDS011;10082;51.038;6.992;2023-03-23T15:45:53;3.75;;;1.80;;
19842;SDS011;10082;51.038;6.992;2023-03-23T15:48:31;3.42;;;2.70;;